F/V Gwel A Vo — FHIJ — position and weather

sailwx.info

Track history (hours):
 
Tides and Currents Weather Stations Pressure Air Temp Water Temp Dewpoint Dewpoint Depression Visibility Wind Speed Wind Dir Waves Ship Positions

F/V Gwel A Vo

Last reported at 2017-Nov-10 15:01 UTC. Time now 2017-Nov-18 02:48 UTC.
Position N 48°25' W 005°15'.

Length 25 m.

Type: Fishing. MMSI: 228131000.

Date/timePositionNaut miles runAvg speedWind from/ knotsBaromVisibWave heightAir tempDewpointWater temp
2017-Nov-10 15:01N 48°25' W 005°15'1 8.0
2017-Nov-10 14:51N 48°24' W 005°14'3 7.8
2017-Nov-10 14:30N 48°22' W 005°11'4 8.0
2017-Nov-10 14:00N 48°19' W 005°08'4 8.1
2017-Nov-10 13:30N 48°16' W 005°04'4 8.2
2017-Nov-10 13:01N 48°12' W 005°01'4 8.2
2017-Nov-10 12:29N 48°09' W 004°57'4 8.6
2017-Nov-10 12:00N 48°06' W 004°53'4 8.3
2017-Nov-10 11:30N 48°03' W 004°48'4 7.2
2017-Nov-10 11:00N 48°01' W 004°44'4 8.2
2017-Nov-10 10:30N 47°58' W 004°39'4 8.4
2017-Nov-10 10:00N 47°55' W 004°35'4 8.3
2017-Nov-10 09:30N 47°52' W 004°30'4 8.0
2017-Nov-10 09:00N 47°50' W 004°26'2 4.4
2017-Nov-10 08:29N 47°49' W 004°23'0 0.0
2017-Nov-10 07:56N 47°49' W 004°23'0 0.1
2017-Nov-10 06:49N 47°49' W 004°23'0 0.0
2017-Nov-10 06:10N 47°49' W 004°23'0 0.0
2017-Nov-10 06:00N 47°49' W 004°23'0 0.0
2017-Nov-10 05:25N 47°49' W 004°23'0 0.0
2017-Nov-10 04:56N 47°49' W 004°23'0 0.0
2017-Nov-10 04:28N 47°49' W 004°23'0 0.0
2017-Nov-10 03:52N 47°49' W 004°23'0 0.0
2017-Nov-10 03:27N 47°49' W 004°23'0 0.0
2017-Nov-10 02:53N 47°49' W 004°23'0 0.0
2017-Nov-10 01:37N 47°49' W 004°23'0 0.0
2017-Nov-10 01:23N 47°49' W 004°23'0 0.0
2017-Nov-10 00:45N 47°49' W 004°23'0 0.0
2017-Nov-10 00:29N 47°49' W 004°23'0 0.0
2017-Nov-10 00:00N 47°49' W 004°23'0 0.0
2017-Nov-09 23:03N 47°49' W 004°23'0 0.0
2017-Nov-09 22:54N 47°49' W 004°23'0 0.0
2017-Nov-09 22:06N 47°49' W 004°23'0 0.0
2017-Nov-09 21:51N 47°49' W 004°23'0 0.0
2017-Nov-09 21:14N 47°49' W 004°23'0 0.0
2017-Nov-09 20:55N 47°49' W 004°23'0 0.0
2017-Nov-09 20:27N 47°49' W 004°23'0 0.0
2017-Nov-09 19:50N 47°49' W 004°23'0 0.0
2017-Nov-09 19:26N 47°49' W 004°23'0 0.0
2017-Nov-09 18:23N 47°49' W 004°23'0 0.0
2017-Nov-09 17:56N 47°49' W 004°23'0 0.0
2017-Nov-09 17:29N 47°49' W 004°23'0 0.0
2017-Nov-09 16:47N 47°49' W 004°23'0 0.0
2017-Nov-09 16:11N 47°49' W 004°23'0 0.0
2017-Nov-09 15:42N 47°49' W 004°23'0 0.0
2017-Nov-09 15:05N 47°49' W 004°23'0 0.0
2017-Nov-09 14:49N 47°49' W 004°23'0 0.0
2017-Nov-09 14:27N 47°49' W 004°23'0 0.0
2017-Nov-09 13:52N 47°49' W 004°23'0 0.0
2017-Nov-09 13:00N 47°49' W 004°23'0 0.0
2017-Nov-09 11:04N 47°49' W 004°23'0 0.0
2017-Nov-09 10:01N 47°49' W 004°23'0 0.0
2017-Nov-09 09:24N 47°49' W 004°23'0 0.0
2017-Nov-09 06:21N 47°49' W 004°23'0 0.0
2017-Nov-09 05:26N 47°49' W 004°23'0 0.0
2017-Nov-09 04:53N 47°49' W 004°23'0 0.0
2017-Nov-09 04:16N 47°49' W 004°23'0 0.1
2017-Nov-09 03:54N 47°49' W 004°23'0 0.1
2017-Nov-09 03:25N 47°49' W 004°23'0 0.0
2017-Nov-09 02:57N 47°49' W 004°23'0 0.0
2017-Nov-09 02:28N 47°49' W 004°23'0 0.0
2017-Nov-09 01:52N 47°49' W 004°23'0 0.0
2017-Nov-09 01:28N 47°49' W 004°23'0 0.0
2017-Nov-09 00:57N 47°49' W 004°23'0 0.0
2017-Nov-09 00:26N 47°49' W 004°23'0 0.0
2017-Nov-08 23:59N 47°49' W 004°23'0 0.0
2017-Nov-08 23:26N 47°49' W 004°23'0 0.0
2017-Nov-08 23:00N 47°49' W 004°23'0 0.0
2017-Nov-08 22:30N 47°49' W 004°23'0 0.0
2017-Nov-08 22:00N 47°49' W 004°23'0 0.0
2017-Nov-08 21:30N 47°49' W 004°23'0 0.0
2017-Nov-08 20:58N 47°49' W 004°23'0 0.0
2017-Nov-08 20:29N 47°49' W 004°23'0 0.0
2017-Nov-08 19:55N 47°49' W 004°23'0 0.0
2017-Nov-08 19:22N 47°49' W 004°23'0 0.0
2017-Nov-08 18:45N 47°49' W 004°23'0 0.0
2017-Nov-08 18:30N 47°49' W 004°23'0 0.0
2017-Nov-08 17:52N 47°49' W 004°23'0 0.0
2017-Nov-08 17:30N 47°49' W 004°23'0 0.0
2017-Nov-08 16:54N 47°49' W 004°23'0 0.0
2017-Nov-08 16:28N 47°49' W 004°23'0 0.0
2017-Nov-08 15:58N 47°49' W 004°23'0 0.0
2017-Nov-08 15:19N 47°49' W 004°23'0 0.0
2017-Nov-08 14:31N 47°49' W 004°23'0 0.0
2017-Nov-08 13:35N 47°49' W 004°23'0 0.0
2017-Nov-08 12:43N 47°49' W 004°23'0 0.0
2017-Nov-08 11:40N 47°49' W 004°23'0 0.0
2017-Nov-08 10:52N 47°49' W 004°23'0 0.0
2017-Nov-08 10:29N 47°49' W 004°23'0 0.1
2017-Nov-08 09:36N 47°49' W 004°23'0 0.0
2017-Nov-08 09:19N 47°49' W 004°23'0 0.0
2017-Nov-08 09:00N 47°49' W 004°23'0 0.0
2017-Nov-08 08:27N 47°49' W 004°23'0 0.0
2017-Nov-08 07:58N 47°49' W 004°23'0 0.1
2017-Nov-08 06:57N 47°49' W 004°23'0 0.0
2017-Nov-08 06:26N 47°49' W 004°23'0 0.0
2017-Nov-08 05:49N 47°49' W 004°23'0 0.0
2017-Nov-08 05:30N 47°49' W 004°23'0 0.0
2017-Nov-08 04:51N 47°49' W 004°23'0 0.0
2017-Nov-08 04:30N 47°49' W 004°23'0 0.0
2017-Nov-08 03:58N 47°49' W 004°23'0 0.0
2017-Nov-08 03:30N 47°49' W 004°23'0 0.0
2017-Nov-07 19:15N 47°49' W 004°23'0 0.0
2017-Nov-07 18:59N 47°49' W 004°23'0 0.0
2017-Nov-07 18:22N 47°49' W 004°23'0 0.0
2017-Nov-07 17:23N 47°49' W 004°23'0 0.2
2017-Nov-07 16:58N 47°49' W 004°23'0 0.0
2017-Nov-07 16:30N 47°49' W 004°23'0 0.0
2017-Nov-07 15:39N 47°49' W 004°23'  
Track history (hours):
 
Tides and Currents Weather Stations Pressure Air Temp Water Temp Dewpoint Dewpoint Depression Visibility Wind Speed Wind Dir Waves Ship Positions

F/V Gwel A Vo

Last reported at 2017-Nov-10 15:01 UTC. Time now 2017-Nov-18 02:48 UTC.
Position N 48°25' W 005°15'.

Length 25 m.

Type: Fishing. MMSI: 228131000.

Date/timePositionNaut miles runAvg speedWind from/ knotsBaromVisibWave heightAir tempDewpointWater temp
2017-Nov-10 15:01N 48°25' W 005°15'1 8.0
2017-Nov-10 14:51N 48°24' W 005°14'3 7.8
2017-Nov-10 14:30N 48°22' W 005°11'4 8.0
2017-Nov-10 14:00N 48°19' W 005°08'4 8.1
2017-Nov-10 13:30N 48°16' W 005°04'4 8.2
2017-Nov-10 13:01N 48°12' W 005°01'4 8.2
2017-Nov-10 12:29N 48°09' W 004°57'4 8.6
2017-Nov-10 12:00N 48°06' W 004°53'4 8.3
2017-Nov-10 11:30N 48°03' W 004°48'4 7.2
2017-Nov-10 11:00N 48°01' W 004°44'4 8.2
2017-Nov-10 10:30N 47°58' W 004°39'4 8.4
2017-Nov-10 10:00N 47°55' W 004°35'4 8.3
2017-Nov-10 09:30N 47°52' W 004°30'4 8.0
2017-Nov-10 09:00N 47°50' W 004°26'2 4.4
2017-Nov-10 08:29N 47°49' W 004°23'0 0.0
2017-Nov-10 07:56N 47°49' W 004°23'0 0.1
2017-Nov-10 06:49N 47°49' W 004°23'0 0.0
2017-Nov-10 06:10N 47°49' W 004°23'0 0.0
2017-Nov-10 06:00N 47°49' W 004°23'0 0.0
2017-Nov-10 05:25N 47°49' W 004°23'0 0.0
2017-Nov-10 04:56N 47°49' W 004°23'0 0.0
2017-Nov-10 04:28N 47°49' W 004°23'0 0.0
2017-Nov-10 03:52N 47°49' W 004°23'0 0.0
2017-Nov-10 03:27N 47°49' W 004°23'0 0.0
2017-Nov-10 02:53N 47°49' W 004°23'0 0.0
2017-Nov-10 01:37N 47°49' W 004°23'0 0.0
2017-Nov-10 01:23N 47°49' W 004°23'0 0.0
2017-Nov-10 00:45N 47°49' W 004°23'0 0.0
2017-Nov-10 00:29N 47°49' W 004°23'0 0.0
2017-Nov-10 00:00N 47°49' W 004°23'0 0.0
2017-Nov-09 23:03N 47°49' W 004°23'0 0.0
2017-Nov-09 22:54N 47°49' W 004°23'0 0.0
2017-Nov-09 22:06N 47°49' W 004°23'0 0.0
2017-Nov-09 21:51N 47°49' W 004°23'0 0.0
2017-Nov-09 21:14N 47°49' W 004°23'0 0.0
2017-Nov-09 20:55N 47°49' W 004°23'0 0.0
2017-Nov-09 20:27N 47°49' W 004°23'0 0.0
2017-Nov-09 19:50N 47°49' W 004°23'0 0.0
2017-Nov-09 19:26N 47°49' W 004°23'0 0.0
2017-Nov-09 18:23N 47°49' W 004°23'0 0.0
2017-Nov-09 17:56N 47°49' W 004°23'0 0.0
2017-Nov-09 17:29N 47°49' W 004°23'0 0.0
2017-Nov-09 16:47N 47°49' W 004°23'0 0.0
2017-Nov-09 16:11N 47°49' W 004°23'0 0.0
2017-Nov-09 15:42N 47°49' W 004°23'0 0.0
2017-Nov-09 15:05N 47°49' W 004°23'0 0.0
2017-Nov-09 14:49N 47°49' W 004°23'0 0.0
2017-Nov-09 14:27N 47°49' W 004°23'0 0.0
2017-Nov-09 13:52N 47°49' W 004°23'0 0.0
2017-Nov-09 13:00N 47°49' W 004°23'0 0.0
2017-Nov-09 11:04N 47°49' W 004°23'0 0.0
2017-Nov-09 10:01N 47°49' W 004°23'0 0.0
2017-Nov-09 09:24N 47°49' W 004°23'0 0.0
2017-Nov-09 06:21N 47°49' W 004°23'0 0.0
2017-Nov-09 05:26N 47°49' W 004°23'0 0.0
2017-Nov-09 04:53N 47°49' W 004°23'0 0.0
2017-Nov-09 04:16N 47°49' W 004°23'0 0.1
2017-Nov-09 03:54N 47°49' W 004°23'0 0.1
2017-Nov-09 03:25N 47°49' W 004°23'0 0.0
2017-Nov-09 02:57N 47°49' W 004°23'0 0.0
2017-Nov-09 02:28N 47°49' W 004°23'0 0.0
2017-Nov-09 01:52N 47°49' W 004°23'0 0.0
2017-Nov-09 01:28N 47°49' W 004°23'0 0.0
2017-Nov-09 00:57N 47°49' W 004°23'0 0.0
2017-Nov-09 00:26N 47°49' W 004°23'0 0.0
2017-Nov-08 23:59N 47°49' W 004°23'0 0.0
2017-Nov-08 23:26N 47°49' W 004°23'0 0.0
2017-Nov-08 23:00N 47°49' W 004°23'0 0.0
2017-Nov-08 22:30N 47°49' W 004°23'0 0.0
2017-Nov-08 22:00N 47°49' W 004°23'0 0.0
2017-Nov-08 21:30N 47°49' W 004°23'0 0.0
2017-Nov-08 20:58N 47°49' W 004°23'0 0.0
2017-Nov-08 20:29N 47°49' W 004°23'0 0.0
2017-Nov-08 19:55N 47°49' W 004°23'0 0.0
2017-Nov-08 19:22N 47°49' W 004°23'0 0.0
2017-Nov-08 18:45N 47°49' W 004°23'0 0.0
2017-Nov-08 18:30N 47°49' W 004°23'0 0.0
2017-Nov-08 17:52N 47°49' W 004°23'0 0.0
2017-Nov-08 17:30N 47°49' W 004°23'0 0.0
2017-Nov-08 16:54N 47°49' W 004°23'0 0.0
2017-Nov-08 16:28N 47°49' W 004°23'0 0.0
2017-Nov-08 15:58N 47°49' W 004°23'0 0.0
2017-Nov-08 15:19N 47°49' W 004°23'0 0.0
2017-Nov-08 14:31N 47°49' W 004°23'0 0.0
2017-Nov-08 13:35N 47°49' W 004°23'0 0.0
2017-Nov-08 12:43N 47°49' W 004°23'0 0.0
2017-Nov-08 11:40N 47°49' W 004°23'0 0.0
2017-Nov-08 10:52N 47°49' W 004°23'0 0.0
2017-Nov-08 10:29N 47°49' W 004°23'0 0.1
2017-Nov-08 09:36N 47°49' W 004°23'0 0.0
2017-Nov-08 09:19N 47°49' W 004°23'0 0.0
2017-Nov-08 09:00N 47°49' W 004°23'0 0.0
2017-Nov-08 08:27N 47°49' W 004°23'0 0.0
2017-Nov-08 07:58N 47°49' W 004°23'0 0.1
2017-Nov-08 06:57N 47°49' W 004°23'0 0.0
2017-Nov-08 06:26N 47°49' W 004°23'0 0.0
2017-Nov-08 05:49N 47°49' W 004°23'0 0.0
2017-Nov-08 05:30N 47°49' W 004°23'0 0.0
2017-Nov-08 04:51N 47°49' W 004°23'0 0.0
2017-Nov-08 04:30N 47°49' W 004°23'0 0.0
2017-Nov-08 03:58N 47°49' W 004°23'0 0.0
2017-Nov-08 03:30N 47°49' W 004°23'0 0.0
2017-Nov-07 19:15N 47°49' W 004°23'0 0.0
2017-Nov-07 18:59N 47°49' W 004°23'0 0.0
2017-Nov-07 18:22N 47°49' W 004°23'0 0.0
2017-Nov-07 17:23N 47°49' W 004°23'0 0.2
2017-Nov-07 16:58N 47°49' W 004°23'0 0.0
2017-Nov-07 16:30N 47°49' W 004°23'0 0.0
2017-Nov-07 15:39N 47°49' W 004°23'  

Dump ship's entire track history